sensor_id;sensor_type;location;lat;lon;timestamp;pressure;altitude;pressure_sealevel;temperature;humidity
6096;BME280;25081;42.698;23.298;2023-02-01T00:01:41;95375.72;;;0.61;80.14
6096;BME280;25081;42.698;23.298;2023-02-01T00:03:52;95370.20;;;0.72;80.02
6096;BME280;25081;42.698;23.298;2023-02-01T00:06:03;95377.84;;;0.61;79.99
6096;BME280;25081;42.698;23.298;2023-02-01T00:08:13;95379.32;;;0.60;80.23
6096;BME280;25081;42.698;23.298;2023-02-01T00:10:24;95381.23;;;0.53;80.28
6096;BME280;25081;42.698;23.298;2023-02-01T00:12:35;95380.09;;;0.56;80.29
6096;BME280;25081;42.698;23.298;2023-02-01T00:14:47;95379.48;;;0.58;80.02
6096;BME280;25081;42.698;23.298;2023-02-01T00:16:57;95384.41;;;0.61;80.23
6096;BME280;25081;42.698;23.298;2023-02-01T00:19:10;95385.83;;;0.55;79.80
6096;BME280;25081;42.698;23.298;2023-02-01T00:21:20;95392.55;;;0.54;79.92
6096;BME280;25081;42.698;23.298;2023-02-01T00:23:32;95381.25;;;0.57;79.65
6096;BME280;25081;42.698;23.298;2023-02-01T00:25:43;95384.34;;;0.53;79.73
6096;BME280;25081;42.698;23.298;2023-02-01T00:27:54;95383.35;;;0.50;79.61
6096;BME280;25081;42.698;23.298;2023-02-01T00:30:07;95385.77;;;0.47;79.45
6096;BME280;25081;42.698;23.298;2023-02-01T00:32:17;95372.55;;;0.53;79.50
6096;BME280;25081;42.698;23.298;2023-02-01T00:34:28;95372.56;;;0.57;79.18
6096;BME280;25081;42.698;23.298;2023-02-01T00:36:39;95373.36;;;0.53;78.70
6096;BME280;25081;42.698;23.298;2023-02-01T00:38:49;95379.81;;;0.59;78.11
6096;BME280;25081;42.698;23.298;2023-02-01T00:41:04;95368.59;;;0.49;77.55
6096;BME280;25081;42.698;23.298;2023-02-01T00:43:14;95361.72;;;0.52;77.49
6096;BME280;25081;42.698;23.298;2023-02-01T00:45:25;95367.08;;;0.46;77.47
6096;BME280;25081;42.698;23.298;2023-02-01T00:47:36;95362.08;;;0.31;77.39
6096;BME280;25081;42.698;23.298;2023-02-01T00:49:46;95368.30;;;0.30;77.42
6096;BME280;25081;42.698;23.298;2023-02-01T00:51:57;95367.66;;;0.32;77.41
6096;BME280;25081;42.698;23.298;2023-02-01T00:54:07;95370.77;;;0.32;77.15
6096;BME280;25081;42.698;23.298;2023-02-01T00:56:18;95365.28;;;0.21;77.21
6096;BME280;25081;42.698;23.298;2023-02-01T00:58:28;95361.84;;;0.20;77.29
6096;BME280;25081;42.698;23.298;2023-02-01T01:00:39;95365.56;;;0.18;77.08
6096;BME280;25081;42.698;23.298;2023-02-01T01:02:50;95362.44;;;0.14;77.12
6096;BME280;25081;42.698;23.298;2023-02-01T01:05:01;95359.48;;;0.13;77.14
6096;BME280;25081;42.698;23.298;2023-02-01T01:07:11;95362.81;;;0.19;77.01
6096;BME280;25081;42.698;23.298;2023-02-01T01:09:22;95355.56;;;0.17;76.66
6096;BME280;25081;42.698;23.298;2023-02-01T01:11:33;95358.73;;;0.21;76.45
6096;BME280;25081;42.698;23.298;2023-02-01T01:13:43;95361.96;;;0.19;76.06
6096;BME280;25081;42.698;23.298;2023-02-01T01:15:54;95354.86;;;0.29;75.83
6096;BME280;25081;42.698;23.298;2023-02-01T01:18:05;95356.44;;;0.22;74.93
6096;BME280;25081;42.698;23.298;2023-02-01T01:20:15;95350.23;;;0.27;75.02
6096;BME280;25081;42.698;23.298;2023-02-01T01:22:26;95349.30;;;0.32;74.71
6096;BME280;25081;42.698;23.298;2023-02-01T01:24:37;95352.59;;;0.34;74.25
6096;BME280;25081;42.698;23.298;2023-02-01T01:26:48;95352.13;;;0.17;74.33
6096;BME280;25081;42.698;23.298;2023-02-01T01:28:58;95351.11;;;0.10;74.57
6096;BME280;25081;42.698;23.298;2023-02-01T01:31:10;95344.69;;;0.08;74.17
6096;BME280;25081;42.698;23.298;2023-02-01T01:33:20;95346.48;;;0.08;74.10
6096;BME280;25081;42.698;23.298;2023-02-01T01:35:31;95349.91;;;0.04;73.94
6096;BME280;25081;42.698;23.298;2023-02-01T01:37:41;95355.46;;;0.01;73.80
6096;BME280;25081;42.698;23.298;2023-02-01T01:39:52;95361.03;;;0.02;73.85
6096;BME280;25081;42.698;23.298;2023-02-01T01:42:03;95369.48;;;-0.04;73.42
6096;BME280;25081;42.698;23.298;2023-02-01T01:47:00;95369.46;;;-0.08;73.33
6096;BME280;25081;42.698;23.298;2023-02-01T01:49:12;95367.25;;;-0.17;73.42
6096;BME280;25081;42.698;23.298;2023-02-01T01:51:22;95362.52;;;-0.13;73.21
6096;BME280;25081;42.698;23.298;2023-02-01T01:53:33;95372.77;;;-0.20;73.03
6096;BME280;25081;42.698;23.298;2023-02-01T01:55:43;95366.45;;;-0.13;73.11
6096;BME280;25081;42.698;23.298;2023-02-01T01:57:55;95367.41;;;-0.18;73.15
6096;BME280;25081;42.698;23.298;2023-02-01T02:00:07;95362.91;;;-0.26;73.07
6096;BME280;25081;42.698;23.298;2023-02-01T02:02:17;95362.37;;;-0.30;73.35
6096;BME280;25081;42.698;23.298;2023-02-01T02:04:28;95366.60;;;-0.33;73.29
6096;BME280;25081;42.698;23.298;2023-02-01T02:06:40;95362.34;;;-0.34;73.62
6096;BME280;25081;42.698;23.298;2023-02-01T02:08:50;95363.62;;;-0.38;73.73
6096;BME280;25081;42.698;23.298;2023-02-01T02:11:01;95363.41;;;-0.40;73.98
6096;BME280;25081;42.698;23.298;2023-02-01T02:13:12;95358.38;;;-0.38;74.17
6096;BME280;25081;42.698;23.298;2023-02-01T02:15:23;95350.89;;;-0.33;74.08
6096;BME280;25081;42.698;23.298;2023-02-01T02:17:35;95355.38;;;-0.43;74.04
6096;BME280;25081;42.698;23.298;2023-02-01T02:23:27;95350.05;;;-0.51;74.20
6096;BME280;25081;42.698;23.298;2023-02-01T02:31:26;95358.87;;;-0.52;73.67
6096;BME280;25081;42.698;23.298;2023-02-01T02:33:46;95357.42;;;-0.50;73.75
6096;BME280;25081;42.698;23.298;2023-02-01T02:35:58;95361.56;;;-0.48;73.56
6096;BME280;25081;42.698;23.298;2023-02-01T02:38:13;95361.98;;;-0.52;74.10
6096;BME280;25081;42.698;23.298;2023-02-01T02:40:25;95358.58;;;-0.49;74.26
6096;BME280;25081;42.698;23.298;2023-02-01T02:42:35;95358.63;;;-0.45;74.15
6096;BME280;25081;42.698;23.298;2023-02-01T02:45:04;95363.31;;;-0.35;74.14
6096;BME280;25081;42.698;23.298;2023-02-01T02:47:32;95359.72;;;-0.34;74.41
6096;BME280;25081;42.698;23.298;2023-02-01T02:49:43;95364.40;;;-0.23;74.39
6096;BME280;25081;42.698;23.298;2023-02-01T02:51:54;95355.74;;;-0.20;74.09
6096;BME280;25081;42.698;23.298;2023-02-01T02:54:22;95359.34;;;-0.21;74.31
6096;BME280;25081;42.698;23.298;2023-02-01T02:56:50;95362.11;;;-0.22;74.36
6096;BME280;25081;42.698;23.298;2023-02-01T02:59:19;95358.00;;;-0.25;74.42
6096;BME280;25081;42.698;23.298;2023-02-01T03:01:47;95357.34;;;-0.27;74.63
6096;BME280;25081;42.698;23.298;2023-02-01T03:04:15;95361.03;;;-0.16;74.51
6096;BME280;25081;42.698;23.298;2023-02-01T03:06:26;95357.95;;;-0.11;74.12
6096;BME280;25081;42.698;23.298;2023-02-01T03:08:37;95367.51;;;-0.06;74.04
6096;BME280;25081;42.698;23.298;2023-02-01T03:10:53;95369.05;;;0.01;73.66
6096;BME280;25081;42.698;23.298;2023-02-01T03:13:04;95374.57;;;-0.03;73.37
6096;BME280;25081;42.698;23.298;2023-02-01T03:15:14;95385.20;;;-0.04;72.98
6096;BME280;25081;42.698;23.298;2023-02-01T03:17:26;95381.35;;;-0.14;73.37
6096;BME280;25081;42.698;23.298;2023-02-01T03:19:37;95378.63;;;-0.08;73.07
6096;BME280;25081;42.698;23.298;2023-02-01T03:21:47;95381.84;;;-0.14;73.16
6096;BME280;25081;42.698;23.298;2023-02-01T03:23:58;95381.69;;;-0.13;73.21
6096;BME280;25081;42.698;23.298;2023-02-01T03:26:09;95385.18;;;-0.08;73.06
6096;BME280;25081;42.698;23.298;2023-02-01T03:28:19;95386.16;;;-0.09;72.74
6096;BME280;25081;42.698;23.298;2023-02-01T03:30:31;95394.36;;;-0.08;72.57
6096;BME280;25081;42.698;23.298;2023-02-01T03:32:41;95392.48;;;-0.16;72.76
6096;BME280;25081;42.698;23.298;2023-02-01T03:35:09;95394.30;;;-0.12;72.80
6096;BME280;25081;42.698;23.298;2023-02-01T03:37:21;95389.60;;;-0.09;72.55
6096;BME280;25081;42.698;23.298;2023-02-01T03:39:32;95384.13;;;-0.15;72.48
6096;BME280;25081;42.698;23.298;2023-02-01T03:41:43;95386.90;;;-0.17;72.58
6096;BME280;25081;42.698;23.298;2023-02-01T03:43:54;95386.90;;;-0.17;72.65
6096;BME280;25081;42.698;23.298;2023-02-01T03:46:06;95386.77;;;-0.11;72.93
6096;BME280;25081;42.698;23.298;2023-02-01T03:48:15;95387.17;;;-0.20;72.55
6096;BME280;25081;42.698;23.298;2023-02-01T03:50:26;95382.58;;;-0.22;72.58
6096;BME280;25081;42.698;23.298;2023-02-01T03:52:38;95389.80;;;-0.20;72.65
6096;BME280;25081;42.698;23.298;2023-02-01T03:54:47;95385.92;;;-0.16;72.36
6096;BME280;25081;42.698;23.298;2023-02-01T03:56:58;95382.01;;;-0.30;72.66
6096;BME280;25081;42.698;23.298;2023-02-01T03:59:09;95390.90;;;-0.26;72.83
6096;BME280;25081;42.698;23.298;2023-02-01T04:01:19;95388.48;;;-0.20;74.26
6096;BME280;25081;42.698;23.298;2023-02-01T04:03:31;95390.50;;;-0.18;73.15
6096;BME280;25081;42.698;23.298;2023-02-01T04:05:42;95385.76;;;-0.32;72.73
6096;BME280;25081;42.698;23.298;2023-02-01T04:07:52;95390.51;;;-0.32;73.14
6096;BME280;25081;42.698;23.298;2023-02-01T04:10:03;95385.12;;;-0.30;73.31
6096;BME280;25081;42.698;23.298;2023-02-01T04:12:14;95390.67;;;-0.15;73.04
6096;BME280;25081;42.698;23.298;2023-02-01T04:14:24;95381.04;;;-0.11;72.72
6096;BME280;25081;42.698;23.298;2023-02-01T04:16:35;95397.46;;;-0.09;72.80
6096;BME280;25081;42.698;23.298;2023-02-01T04:18:45;95387.92;;;-0.10;72.86
6096;BME280;25081;42.698;23.298;2023-02-01T04:20:56;95383.74;;;-0.03;73.01
6096;BME280;25081;42.698;23.298;2023-02-01T04:23:06;95392.63;;;0.01;73.02
6096;BME280;25081;42.698;23.298;2023-02-01T04:25:17;95397.90;;;0.05;73.07
6096;BME280;25081;42.698;23.298;2023-02-01T04:27:28;95389.87;;;0.06;72.62
6096;BME280;25081;42.698;23.298;2023-02-01T04:29:38;95391.59;;;0.15;72.76
6096;BME280;25081;42.698;23.298;2023-02-01T04:31:49;95392.00;;;0.24;72.28
6096;BME280;25081;42.698;23.298;2023-02-01T04:33:59;95386.65;;;0.30;72.09
6096;BME280;25081;42.698;23.298;2023-02-01T04:36:10;95392.17;;;0.27;72.10
6096;BME280;25081;42.698;23.298;2023-02-01T04:38:20;95389.27;;;0.30;72.36
6096;BME280;25081;42.698;23.298;2023-02-01T04:40:31;95384.22;;;0.37;72.28
6096;BME280;25081;42.698;23.298;2023-02-01T04:42:42;95386.41;;;0.41;72.24
6096;BME280;25081;42.698;23.298;2023-02-01T04:44:52;95394.77;;;0.45;72.24
6096;BME280;25081;42.698;23.298;2023-02-01T04:47:03;95391.38;;;0.48;72.18
6096;BME280;25081;42.698;23.298;2023-02-01T04:49:14;95393.12;;;0.40;72.60
6096;BME280;25081;42.698;23.298;2023-02-01T04:51:24;95398.20;;;0.41;73.12
6096;BME280;25081;42.698;23.298;2023-02-01T04:53:34;95395.92;;;0.46;72.98
6096;BME280;25081;42.698;23.298;2023-02-01T04:55:47;95396.42;;;0.46;72.89
6096;BME280;25081;42.698;23.298;2023-02-01T04:57:56;95392.56;;;0.32;73.29
6096;BME280;25081;42.698;23.298;2023-02-01T05:00:09;95398.63;;;0.33;73.75
6096;BME280;25081;42.698;23.298;2023-02-01T05:02:20;95406.91;;;0.46;73.48
6096;BME280;25081;42.698;23.298;2023-02-01T05:04:30;95409.09;;;0.50;73.30
6096;BME280;25081;42.698;23.298;2023-02-01T05:06:41;95417.63;;;0.52;73.35
6096;BME280;25081;42.698;23.298;2023-02-01T05:08:51;95414.93;;;0.44;73.73
6096;BME280;25081;42.698;23.298;2023-02-01T05:11:01;95419.73;;;0.49;73.77
6096;BME280;25081;42.698;23.298;2023-02-01T05:13:12;95424.98;;;0.49;74.07
6096;BME280;25081;42.698;23.298;2023-02-01T05:15:41;95426.00;;;0.56;73.79
6096;BME280;25081;42.698;23.298;2023-02-01T05:17:51;95426.05;;;0.60;73.67
6096;BME280;25081;42.698;23.298;2023-02-01T05:20:02;95421.13;;;0.61;73.62
6096;BME280;25081;42.698;23.298;2023-02-01T05:22:12;95422.28;;;0.63;73.57
6096;BME280;25081;42.698;23.298;2023-02-01T05:24:23;95421.13;;;0.61;73.64
6096;BME280;25081;42.698;23.298;2023-02-01T05:26:33;95418.17;;;0.60;73.72
6096;BME280;25081;42.698;23.298;2023-02-01T05:28:44;95415.13;;;0.69;73.73
6096;BME280;25081;42.698;23.298;2023-02-01T05:30:55;95414.33;;;0.76;73.36
6096;BME280;25081;42.698;23.298;2023-02-01T05:33:05;95422.99;;;0.69;73.31
6096;BME280;25081;42.698;23.298;2023-02-01T05:35:16;95423.38;;;0.78;73.45
6096;BME280;25081;42.698;23.298;2023-02-01T05:37:26;95431.44;;;0.84;72.96
6096;BME280;25081;42.698;23.298;2023-02-01T05:39:37;95422.95;;;0.91;72.82
6096;BME280;25081;42.698;23.298;2023-02-01T05:41:47;95419.02;;;0.91;72.89
6096;BME280;25081;42.698;23.298;2023-02-01T05:43:58;95420.16;;;0.88;72.70
6096;BME280;25081;42.698;23.298;2023-02-01T05:46:09;95423.90;;;0.85;72.75
6096;BME280;25081;42.698;23.298;2023-02-01T05:48:20;95416.66;;;0.79;72.93
6096;BME280;25081;42.698;23.298;2023-02-01T05:50:30;95419.14;;;0.85;73.04
6096;BME280;25081;42.698;23.298;2023-02-01T05:52:41;95417.67;;;0.86;72.82
6096;BME280;25081;42.698;23.298;2023-02-01T05:54:51;95412.30;;;0.92;72.75
6096;BME280;25081;42.698;23.298;2023-02-01T05:57:03;95407.70;;;0.90;72.32
6096;BME280;25081;42.698;23.298;2023-02-01T05:59:14;95414.27;;;0.90;72.39
6096;BME280;25081;42.698;23.298;2023-02-01T06:01:24;95421.33;;;0.94;72.18
6096;BME280;25081;42.698;23.298;2023-02-01T06:03:35;95416.62;;;1.01;72.14
6096;BME280;25081;42.698;23.298;2023-02-01T06:05:46;95424.97;;;0.97;71.91
6096;BME280;25081;42.698;23.298;2023-02-01T06:07:56;95421.50;;;0.96;71.75
6096;BME280;25081;42.698;23.298;2023-02-01T06:10:08;95421.05;;;1.05;71.57
6096;BME280;25081;42.698;23.298;2023-02-01T06:12:19;95416.34;;;1.08;71.37
6096;BME280;25081;42.698;23.298;2023-02-01T06:14:29;95427.13;;;1.05;71.39
6096;BME280;25081;42.698;23.298;2023-02-01T06:16:40;95430.24;;;1.05;71.20
6096;BME280;25081;42.698;23.298;2023-02-01T06:18:50;95428.04;;;2.72;78.72
6096;BME280;25081;42.698;23.298;2023-02-01T06:21:01;95420.80;;;4.76;80.94
6096;BME280;25081;42.698;23.298;2023-02-01T06:23:11;95411.46;;;4.24;62.25
6096;BME280;25081;42.698;23.298;2023-02-01T06:25:22;95423.46;;;3.33;63.43
6096;BME280;25081;42.698;23.298;2023-02-01T06:27:32;95430.00;;;2.37;66.18
6096;BME280;25081;42.698;23.298;2023-02-01T06:29:43;95425.21;;;2.04;67.30
6096;BME280;25081;42.698;23.298;2023-02-01T06:31:53;95429.58;;;1.75;68.29
6096;BME280;25081;42.698;23.298;2023-02-01T06:34:04;95425.28;;;1.66;69.17
6096;BME280;25081;42.698;23.298;2023-02-01T06:36:14;95413.13;;;1.65;69.24
6096;BME280;25081;42.698;23.298;2023-02-01T06:38:25;95420.95;;;1.53;69.38
6096;BME280;25081;42.698;23.298;2023-02-01T06:40:36;95421.80;;;1.61;69.37
6096;BME280;25081;42.698;23.298;2023-02-01T06:42:46;95432.50;;;1.68;68.87
6096;BME280;25081;42.698;23.298;2023-02-01T06:44:57;95437.11;;;1.66;68.65
6096;BME280;25081;42.698;23.298;2023-02-01T06:47:07;95439.70;;;1.62;68.89
6096;BME280;25081;42.698;23.298;2023-02-01T06:49:18;95447.09;;;2.29;74.38
6096;BME280;25081;42.698;23.298;2023-02-01T06:51:28;95443.32;;;2.84;66.12
6096;BME280;25081;42.698;23.298;2023-02-01T06:53:39;95444.82;;;2.42;66.55
6096;BME280;25081;42.698;23.298;2023-02-01T06:55:56;95454.31;;;2.31;66.38
6096;BME280;25081;42.698;23.298;2023-02-01T06:58:06;95455.42;;;2.00;67.24
6096;BME280;25081;42.698;23.298;2023-02-01T07:00:26;95457.83;;;1.81;67.76
6096;BME280;25081;42.698;23.298;2023-02-01T07:02:36;95461.28;;;1.82;67.99
6096;BME280;25081;42.698;23.298;2023-02-01T07:04:47;95466.53;;;1.78;68.19
6096;BME280;25081;42.698;23.298;2023-02-01T07:06:58;95473.50;;;1.95;68.95
6096;BME280;25081;42.698;23.298;2023-02-01T07:09:08;95473.52;;;2.07;67.22
6096;BME280;25081;42.698;23.298;2023-02-01T07:11:19;95482.39;;;2.06;67.20
6096;BME280;25081;42.698;23.298;2023-02-01T07:13:29;95478.78;;;2.07;66.97
6096;BME280;25081;42.698;23.298;2023-02-01T07:15:40;95480.56;;;1.94;67.47
6096;BME280;25081;42.698;23.298;2023-02-01T07:17:51;95482.20;;;1.99;67.49
6096;BME280;25081;42.698;23.298;2023-02-01T07:20:01;95485.79;;;1.90;67.30
6096;BME280;25081;42.698;23.298;2023-02-01T07:22:11;95483.13;;;1.78;67.81
6096;BME280;25081;42.698;23.298;2023-02-01T07:24:22;95480.50;;;1.82;67.61
6096;BME280;25081;42.698;23.298;2023-02-01T07:26:33;95495.94;;;1.81;67.75
6096;BME280;25081;42.698;23.298;2023-02-01T07:28:43;95484.31;;;1.84;67.80
6096;BME280;25081;42.698;23.298;2023-02-01T07:30:54;95491.83;;;1.83;67.59
6096;BME280;25081;42.698;23.298;2023-02-01T07:33:04;95490.39;;;1.84;67.67
6096;BME280;25081;42.698;23.298;2023-02-01T07:35:15;95481.38;;;1.95;67.41
6096;BME280;25081;42.698;23.298;2023-02-01T07:37:25;95493.73;;;2.11;66.92
6096;BME280;25081;42.698;23.298;2023-02-01T07:39:36;95481.05;;;2.02;66.89
6096;BME280;25081;42.698;23.298;2023-02-01T07:41:46;95493.27;;;2.15;66.85
6096;BME280;25081;42.698;23.298;2023-02-01T07:43:57;95501.16;;;2.19;66.51
6096;BME280;25081;42.698;23.298;2023-02-01T07:46:07;95497.21;;;2.15;66.57
6096;BME280;25081;42.698;23.298;2023-02-01T07:48:17;95492.11;;;2.18;66.29
6096;BME280;25081;42.698;23.298;2023-02-01T07:50:28;95506.27;;;2.29;65.87
6096;BME280;25081;42.698;23.298;2023-02-01T07:52:38;95502.69;;;2.46;65.84
6096;BME280;25081;42.698;23.298;2023-02-01T07:54:49;95512.39;;;2.50;65.63
6096;BME280;25081;42.698;23.298;2023-02-01T07:57:00;95505.16;;;2.44;65.06
6096;BME280;25081;42.698;23.298;2023-02-01T07:59:10;95503.16;;;2.38;65.17
6096;BME280;25081;42.698;23.298;2023-02-01T08:01:22;95515.19;;;2.48;65.27
6096;BME280;25081;42.698;23.298;2023-02-01T08:05:55;95514.03;;;2.51;64.69
6096;BME280;25081;42.698;23.298;2023-02-01T08:08:06;95522.43;;;2.42;65.56
6096;BME280;25081;42.698;23.298;2023-02-01T08:10:18;95518.27;;;2.32;64.95
6096;BME280;25081;42.698;23.298;2023-02-01T08:12:28;95529.64;;;2.36;65.22
6096;BME280;25081;42.698;23.298;2023-02-01T08:14:39;95516.52;;;2.52;64.70
6096;BME280;25081;42.698;23.298;2023-02-01T08:16:50;95516.20;;;2.64;64.14
6096;BME280;25081;42.698;23.298;2023-02-01T08:19:00;95516.55;;;2.73;64.66
6096;BME280;25081;42.698;23.298;2023-02-01T08:21:12;95516.38;;;2.74;63.62
6096;BME280;25081;42.698;23.298;2023-02-01T08:23:22;95517.02;;;2.68;63.99
6096;BME280;25081;42.698;23.298;2023-02-01T08:25:32;95517.19;;;2.87;64.06
6096;BME280;25081;42.698;23.298;2023-02-01T08:27:43;95513.25;;;2.95;63.08
6096;BME280;25081;42.698;23.298;2023-02-01T08:29:54;95515.72;;;2.93;62.85
6096;BME280;25081;42.698;23.298;2023-02-01T08:32:05;95512.59;;;3.09;62.86
6096;BME280;25081;42.698;23.298;2023-02-01T08:34:16;95518.98;;;3.15;62.70
6096;BME280;25081;42.698;23.298;2023-02-01T08:36:27;95518.51;;;3.20;62.06
6096;BME280;25081;42.698;23.298;2023-02-01T08:38:37;95523.44;;;3.14;61.67
6096;BME280;25081;42.698;23.298;2023-02-01T08:40:47;95511.76;;;3.13;62.00
6096;BME280;25081;42.698;23.298;2023-02-01T08:42:58;95514.88;;;3.29;61.51
6096;BME280;25081;42.698;23.298;2023-02-01T08:45:11;95519.28;;;3.44;61.16
6096;BME280;25081;42.698;23.298;2023-02-01T08:47:22;95517.11;;;3.60;60.49
6096;BME280;25081;42.698;23.298;2023-02-01T08:49:33;95508.31;;;3.80;60.14
6096;BME280;25081;42.698;23.298;2023-02-01T08:51:43;95504.16;;;3.90;59.40
6096;BME280;25081;42.698;23.298;2023-02-01T08:53:54;95496.71;;;3.97;59.03
6096;BME280;25081;42.698;23.298;2023-02-01T08:56:06;95490.23;;;4.08;58.44
6096;BME280;25081;42.698;23.298;2023-02-01T08:58:16;95498.46;;;4.09;58.63
6096;BME280;25081;42.698;23.298;2023-02-01T09:00:27;95489.97;;;4.26;57.56
6096;BME280;25081;42.698;23.298;2023-02-01T09:02:38;95505.13;;;3.93;58.04
6096;BME280;25081;42.698;23.298;2023-02-01T09:04:49;95501.05;;;3.82;58.69
6096;BME280;25081;42.698;23.298;2023-02-01T09:07:00;95505.80;;;3.91;58.42
6096;BME280;25081;42.698;23.298;2023-02-01T09:09:11;95506.77;;;3.98;58.03
6096;BME280;25081;42.698;23.298;2023-02-01T09:11:22;95501.31;;;4.30;57.66
6096;BME280;25081;42.698;23.298;2023-02-01T09:13:33;95501.32;;;4.57;56.80
6096;BME280;25081;42.698;23.298;2023-02-01T09:15:44;95503.16;;;4.26;57.36
6096;BME280;25081;42.698;23.298;2023-02-01T09:17:54;95508.77;;;4.27;57.43
6096;BME280;25081;42.698;23.298;2023-02-01T09:20:05;95503.37;;;4.43;57.19
6096;BME280;25081;42.698;23.298;2023-02-01T09:22:16;95504.59;;;4.37;57.08
6096;BME280;25081;42.698;23.298;2023-02-01T09:24:27;95519.36;;;4.19;57.67
6096;BME280;25081;42.698;23.298;2023-02-01T09:26:38;95506.70;;;4.10;57.79
6096;BME280;25081;42.698;23.298;2023-02-01T09:28:48;95509.33;;;4.41;57.34
6096;BME280;25081;42.698;23.298;2023-02-01T09:30:59;95507.99;;;4.91;55.76
6096;BME280;25081;42.698;23.298;2023-02-01T09:33:09;95502.77;;;4.64;56.08
6096;BME280;25081;42.698;23.298;2023-02-01T09:35:20;95495.30;;;4.68;55.85
6096;BME280;25081;42.698;23.298;2023-02-01T09:37:30;95495.13;;;4.46;56.06
6096;BME280;25081;42.698;23.298;2023-02-01T09:39:41;95494.17;;;4.66;55.94
6096;BME280;25081;42.698;23.298;2023-02-01T09:41:56;95494.26;;;4.54;56.23
6096;BME280;25081;42.698;23.298;2023-02-01T09:44:11;95482.97;;;5.02;54.88
6096;BME280;25081;42.698;23.298;2023-02-01T09:46:21;95481.70;;;7.48;49.50
6096;BME280;25081;42.698;23.298;2023-02-01T09:48:32;95460.37;;;9.97;42.97
6096;BME280;25081;42.698;23.298;2023-02-01T09:50:43;95468.67;;;9.92;43.14
6096;BME280;25081;42.698;23.298;2023-02-01T09:52:55;95466.38;;;8.80;43.94
6096;BME280;25081;42.698;23.298;2023-02-01T09:55:06;95466.70;;;8.27;45.42
6096;BME280;25081;42.698;23.298;2023-02-01T09:57:16;95452.27;;;8.19;45.31
6096;BME280;25081;42.698;23.298;2023-02-01T09:59:31;95439.64;;;9.64;42.99
6096;BME280;25081;42.698;23.298;2023-02-01T10:01:41;95431.09;;;10.65;40.85
6096;BME280;25081;42.698;23.298;2023-02-01T10:03:52;95436.92;;;11.36;38.80
6096;BME280;25081;42.698;23.298;2023-02-01T10:08:39;95442.28;;;11.45;39.11
6096;BME280;25081;42.698;23.298;2023-02-01T10:10:49;95440.01;;;12.68;35.81
6096;BME280;25081;42.698;23.298;2023-02-01T10:13:25;95431.71;;;12.58;35.91
6096;BME280;25081;42.698;23.298;2023-02-01T10:20:50;95427.63;;;11.89;35.83
6096;BME280;25081;42.698;23.298;2023-02-01T10:23:03;95429.66;;;11.68;37.23
6096;BME280;25081;42.698;23.298;2023-02-01T10:25:17;95419.60;;;10.96;38.19
6096;BME280;25081;42.698;23.298;2023-02-01T10:27:27;95417.73;;;11.46;37.46
6096;BME280;25081;42.698;23.298;2023-02-01T10:29:37;95411.25;;;12.24;36.71
6096;BME280;25081;42.698;23.298;2023-02-01T10:31:47;95414.45;;;11.78;37.00
6096;BME280;25081;42.698;23.298;2023-02-01T10:33:58;95418.05;;;10.34;38.45
6096;BME280;25081;42.698;23.298;2023-02-01T10:36:13;95408.19;;;10.73;38.18
6096;BME280;25081;42.698;23.298;2023-02-01T10:38:24;95399.88;;;12.47;37.65
6096;BME280;25081;42.698;23.298;2023-02-01T10:40:33;95397.45;;;12.37;35.63
6096;BME280;25081;42.698;23.298;2023-02-01T10:42:43;95404.93;;;10.80;37.81
6096;BME280;25081;42.698;23.298;2023-02-01T10:44:55;95410.08;;;10.81;37.73
6096;BME280;25081;42.698;23.298;2023-02-01T10:47:07;95403.72;;;9.93;39.74
6096;BME280;25081;42.698;23.298;2023-02-01T10:49:19;95408.05;;;10.16;39.55
6096;BME280;25081;42.698;23.298;2023-02-01T10:51:30;95415.02;;;10.17;39.18
6096;BME280;25081;42.698;23.298;2023-02-01T10:53:41;95417.14;;;9.66;39.92
6096;BME280;25081;42.698;23.298;2023-02-01T10:55:52;95406.38;;;10.28;41.13
6096;BME280;25081;42.698;23.298;2023-02-01T10:58:02;95412.39;;;11.46;39.15
6096;BME280;25081;42.698;23.298;2023-02-01T11:00:21;95403.53;;;11.61;36.60
6096;BME280;25081;42.698;23.298;2023-02-01T11:02:32;95421.80;;;10.58;38.46
6096;BME280;25081;42.698;23.298;2023-02-01T11:04:42;95412.25;;;9.50;40.70
6096;BME280;25081;42.698;23.298;2023-02-01T11:06:53;95421.08;;;8.71;42.25
6096;BME280;25081;42.698;23.298;2023-02-01T11:09:11;95427.48;;;7.57;44.95
6096;BME280;25081;42.698;23.298;2023-02-01T11:11:20;95415.52;;;6.95;46.17
6096;BME280;25081;42.698;23.298;2023-02-01T11:13:31;95412.06;;;7.22;46.16
6096;BME280;25081;42.698;23.298;2023-02-01T11:15:43;95408.36;;;7.68;45.95
6096;BME280;25081;42.698;23.298;2023-02-01T11:17:54;95405.69;;;6.99;46.18
6096;BME280;25081;42.698;23.298;2023-02-01T11:20:09;95397.69;;;7.79;45.22
6096;BME280;25081;42.698;23.298;2023-02-01T11:22:17;95398.85;;;8.11;44.39
6096;BME280;25081;42.698;23.298;2023-02-01T11:24:29;95399.93;;;9.00;42.36
6096;BME280;25081;42.698;23.298;2023-02-01T11:26:40;95392.74;;;8.68;42.95
6096;BME280;25081;42.698;23.298;2023-02-01T11:28:54;95385.03;;;7.74;44.39
6096;BME280;25081;42.698;23.298;2023-02-01T11:31:04;95385.45;;;8.02;44.18
6096;BME280;25081;42.698;23.298;2023-02-01T11:33:15;95376.61;;;7.12;46.55
6096;BME280;25081;42.698;23.298;2023-02-01T11:35:26;95398.48;;;7.21;46.99
6096;BME280;25081;42.698;23.298;2023-02-01T11:37:37;95379.69;;;6.99;47.01
6096;BME280;25081;42.698;23.298;2023-02-01T11:39:53;95380.60;;;7.71;45.56
6096;BME280;25081;42.698;23.298;2023-02-01T11:42:05;95376.31;;;7.46;46.00
6096;BME280;25081;42.698;23.298;2023-02-01T11:44:21;95384.92;;;7.20;46.59
6096;BME280;25081;42.698;23.298;2023-02-01T11:46:31;95373.77;;;7.31;47.14
6096;BME280;25081;42.698;23.298;2023-02-01T11:48:42;95378.15;;;7.45;46.88
6096;BME280;25081;42.698;23.298;2023-02-01T11:50:54;95375.42;;;7.15;47.15
6096;BME280;25081;42.698;23.298;2023-02-01T11:53:13;95362.44;;;7.68;46.58
6096;BME280;25081;42.698;23.298;2023-02-01T11:55:33;95354.77;;;6.93;47.56
6096;BME280;25081;42.698;23.298;2023-02-01T11:57:49;95355.55;;;7.04;47.54
6096;BME280;25081;42.698;23.298;2023-02-01T12:00:04;95360.01;;;6.97;47.81
6096;BME280;25081;42.698;23.298;2023-02-01T12:02:43;95365.02;;;6.75;48.18
6096;BME280;25081;42.698;23.298;2023-02-01T12:05:08;95359.36;;;6.78;48.34
6096;BME280;25081;42.698;23.298;2023-02-01T12:07:19;95357.13;;;6.81;48.20